createdAt,value
2017-06-20T00:04:34.532Z,1016.067
2017-06-20T00:16:21.040Z,1016.015
2017-06-20T00:19:05.188Z,1015.982
2017-06-20T00:21:59.391Z,1015.973
2017-06-20T00:24:54.289Z,1015.987
2017-06-20T00:30:16.272Z,1015.887
2017-06-20T00:51:05.915Z,1015.869
2017-06-20T00:54:12.575Z,1015.809
2017-06-20T01:40:07.731Z,1015.569
2017-06-20T01:46:48.953Z,1015.527
2017-06-20T02:32:29.246Z,1015.232
2017-06-20T03:00:15.956Z,1015.239
2017-06-20T05:47:23.559Z,1015.109
2017-06-20T05:52:46.065Z,1015.123
2017-06-20T05:55:30.786Z,1015.129
2017-06-20T06:05:34.817Z,1015.114
2017-06-20T06:08:19.284Z,1015.176
2017-06-20T06:11:13.867Z,1015.169
2017-06-20T06:14:09.107Z,1015.188
2017-06-20T06:17:04.389Z,1015.216
2017-06-20T06:19:59.858Z,1015.217
2017-06-20T06:22:55.421Z,1015.185
2017-06-20T06:26:02.141Z,1015.199
2017-06-20T06:28:52.981Z,1015.192
2017-06-20T06:31:48.486Z,1015.204
2017-06-20T06:34:43.981Z,1015.216
2017-06-20T06:40:35.237Z,1015.215
2017-06-20T06:43:30.898Z,1015.214
2017-06-20T06:46:26.473Z,1015.224
2017-06-20T06:49:22.039Z,1015.235
2017-06-20T06:52:17.709Z,1015.252
2017-06-20T06:55:13.365Z,1015.263
2017-06-20T06:58:09.062Z,1015.249
2017-06-20T07:04:00.222Z,1015.279
2017-06-20T07:06:55.832Z,1015.285
2017-06-20T07:09:51.576Z,1015.293
2017-06-20T07:12:47.396Z,1015.300
2017-06-20T07:15:43.018Z,1015.261
2017-06-20T07:18:38.696Z,1015.297
2017-06-20T07:21:34.442Z,1015.348
2017-06-20T07:24:30.166Z,1015.333
2017-06-20T07:27:25.754Z,1015.380
2017-06-20T07:30:21.385Z,1015.398
2017-06-20T07:33:17.065Z,1015.378
2017-06-20T07:36:12.821Z,1015.383
2017-06-20T07:39:08.543Z,1015.387
2017-06-20T07:42:04.292Z,1015.374
2017-06-20T07:45:00.099Z,1015.359
2017-06-20T07:47:55.919Z,1015.393
2017-06-20T07:50:51.692Z,1015.363
2017-06-20T07:53:47.481Z,1015.332
2017-06-20T07:56:43.343Z,1015.340
2017-06-20T07:59:39.205Z,1015.315
2017-06-20T08:02:34.912Z,1015.358
2017-06-20T08:05:30.718Z,1015.346
2017-06-20T08:08:26.717Z,1015.354
2017-06-20T08:14:18.428Z,1015.331
2017-06-20T08:17:14.380Z,1015.352
2017-06-20T08:20:10.317Z,1015.332
2017-06-20T08:23:06.349Z,1015.330
2017-06-20T08:26:02.436Z,1015.302
2017-06-20T08:28:58.461Z,1015.265
2017-06-20T08:31:54.382Z,1015.267
2017-06-20T08:34:50.483Z,1015.262
2017-06-20T08:37:46.359Z,1015.288
2017-06-20T08:40:42.296Z,1015.272
2017-06-20T08:43:38.463Z,1015.239
2017-06-20T08:46:34.379Z,1015.265
2017-06-20T08:49:30.391Z,1015.283
2017-06-20T08:52:26.469Z,1015.257
2017-06-20T08:55:22.516Z,1015.327
2017-06-20T08:58:18.594Z,1015.312
2017-06-20T09:01:14.741Z,1015.296
2017-06-20T09:04:11.002Z,1015.327
2017-06-20T09:07:07.132Z,1015.347
2017-06-20T09:10:03.359Z,1015.341
2017-06-20T09:12:59.648Z,1015.290
2017-06-20T09:15:55.977Z,1015.270
2017-06-20T09:18:52.246Z,1015.258
2017-06-20T09:21:48.489Z,1015.228
2017-06-20T09:24:44.664Z,1015.223
2017-06-20T09:27:40.819Z,1015.205
2017-06-20T09:30:36.958Z,1015.257
2017-06-20T09:33:33.055Z,1015.220
2017-06-20T09:36:29.051Z,1015.214
2017-06-20T09:39:25.065Z,1015.209
2017-06-20T09:42:20.954Z,1015.260
2017-06-20T09:45:16.747Z,1015.211
2017-06-20T09:48:12.654Z,1015.214
2017-06-20T09:51:08.852Z,1015.191
2017-06-20T09:54:05.280Z,1015.205
2017-06-20T09:57:01.300Z,1015.273
2017-06-20T09:59:57.527Z,1015.287
2017-06-20T10:02:53.553Z,1015.278
2017-06-20T10:05:49.722Z,1015.261
2017-06-20T10:08:45.808Z,1015.263
2017-06-20T10:11:42.021Z,1015.315
2017-06-20T10:14:38.070Z,1015.300
2017-06-20T10:17:33.933Z,1015.237
2017-06-20T10:20:29.693Z,1015.292
2017-06-20T10:26:21.657Z,1015.388
2017-06-20T10:29:17.968Z,1015.338
2017-06-20T10:32:14.141Z,1015.357
2017-06-20T10:35:10.115Z,1015.397
2017-06-20T10:38:06.228Z,1015.355
2017-06-20T10:41:02.005Z,1015.223
2017-06-20T10:43:57.914Z,1015.338
2017-06-20T10:46:53.940Z,1015.345
2017-06-20T10:49:49.729Z,1015.374
2017-06-20T10:52:45.707Z,1015.349
2017-06-20T10:55:41.561Z,1015.384
2017-06-20T10:58:37.405Z,1015.380
2017-06-20T11:01:33.191Z,1015.402
2017-06-20T11:04:29.075Z,1015.419
2017-06-20T11:07:24.950Z,1015.352
2017-06-20T11:10:20.892Z,1015.325
2017-06-20T11:13:16.835Z,1015.296
2017-06-20T11:16:12.742Z,1015.325
2017-06-20T11:19:08.646Z,1015.294
2017-06-20T11:22:04.518Z,1015.283
2017-06-20T11:25:00.473Z,1015.304
2017-06-20T11:27:56.345Z,1015.348
2017-06-20T11:30:52.146Z,1015.278
2017-06-20T11:33:47.942Z,1015.282
2017-06-20T11:36:43.850Z,1015.193
2017-06-20T11:39:39.781Z,1015.272
2017-06-20T11:42:35.551Z,1015.290
2017-06-20T11:45:31.498Z,1015.292
2017-06-20T11:48:27.453Z,1015.233
2017-06-20T11:51:23.415Z,1015.264
2017-06-20T11:57:15.201Z,1015.281
2017-06-20T12:00:11.084Z,1015.251
2017-06-20T12:03:07.089Z,1015.252
2017-06-20T12:06:02.994Z,1015.263
2017-06-20T12:08:58.820Z,1015.265
2017-06-20T12:11:54.635Z,1015.265
2017-06-20T12:14:50.522Z,1015.276
2017-06-20T12:17:46.404Z,1015.333
2017-06-20T12:23:38.102Z,1015.229
2017-06-20T12:26:33.990Z,1015.310
2017-06-20T12:29:29.879Z,1015.324
2017-06-20T12:32:25.632Z,1015.320
2017-06-20T12:35:21.554Z,1015.295
2017-06-20T12:38:17.438Z,1015.208
2017-06-20T12:41:13.263Z,1015.291
2017-06-20T12:44:09.156Z,1015.322
2017-06-20T12:47:04.916Z,1015.354
2017-06-20T12:50:00.738Z,1015.310
2017-06-20T12:52:56.545Z,1015.298
2017-06-20T12:55:52.367Z,1015.347
2017-06-20T12:58:48.323Z,1015.359
2017-06-20T13:01:43.994Z,1015.326
2017-06-20T13:04:39.830Z,1015.328
2017-06-20T13:07:35.659Z,1015.311
2017-06-20T13:10:31.588Z,1015.291
2017-06-20T13:13:27.504Z,1015.349
2017-06-20T13:16:23.403Z,1015.348
2017-06-20T13:19:19.200Z,1015.340
2017-06-20T13:22:15.045Z,1015.389
2017-06-20T13:25:10.884Z,1015.384
2017-06-20T13:28:06.669Z,1015.402
2017-06-20T13:31:02.315Z,1015.390
2017-06-20T13:33:58.198Z,1015.479
2017-06-20T13:36:54.002Z,1015.451
2017-06-20T13:39:49.647Z,1015.499
2017-06-20T13:42:45.316Z,1015.481
2017-06-20T13:45:41.214Z,1015.561
2017-06-20T13:48:36.936Z,1015.573
2017-06-20T13:51:32.805Z,1015.534
2017-06-20T13:54:28.595Z,1015.542
2017-06-20T13:57:24.467Z,1015.533
2017-06-20T14:00:20.324Z,1015.528
2017-06-20T14:03:16.079Z,1015.596
2017-06-20T14:06:12.022Z,1015.566
2017-06-20T14:09:07.888Z,1015.597
2017-06-20T14:12:03.811Z,1015.615
2017-06-20T14:14:59.630Z,1015.618
2017-06-20T14:17:55.390Z,1015.619
2017-06-20T14:20:51.208Z,1015.659
2017-06-20T14:23:47.007Z,1015.592
2017-06-20T14:26:42.824Z,1015.616
2017-06-20T14:29:38.475Z,1015.615
2017-06-20T14:35:30.106Z,1015.597
2017-06-20T14:38:25.763Z,1015.639
2017-06-20T14:41:21.505Z,1015.570
2017-06-20T14:44:17.362Z,1015.620
2017-06-20T14:47:13.169Z,1015.536
2017-06-20T14:53:04.800Z,1015.611
2017-06-20T14:56:00.625Z,1015.563
2017-06-20T14:58:56.418Z,1015.631
2017-06-20T15:01:52.101Z,1015.682
2017-06-20T15:04:47.899Z,1015.647
2017-06-20T15:07:43.575Z,1015.674
2017-06-20T15:10:39.410Z,1015.684
2017-06-20T15:13:35.184Z,1015.679
2017-06-20T15:16:30.961Z,1015.694
2017-06-20T15:19:26.752Z,1015.689
2017-06-20T15:22:22.426Z,1015.755
2017-06-20T15:25:18.089Z,1015.725
2017-06-20T15:28:13.800Z,1015.687
2017-06-20T15:31:09.553Z,1015.765
2017-06-20T15:34:05.402Z,1015.809
2017-06-20T15:39:56.784Z,1015.807
2017-06-20T15:42:52.461Z,1015.798
2017-06-20T15:48:43.998Z,1015.851
2017-06-20T15:51:39.751Z,1015.961
2017-06-20T15:54:35.411Z,1015.891
2017-06-20T15:57:31.152Z,1015.854
2017-06-20T16:00:27.012Z,1015.858
2017-06-20T16:03:22.772Z,1015.863
2017-06-20T16:06:18.244Z,1015.860
2017-06-20T16:09:13.847Z,1015.887
2017-06-20T16:12:09.580Z,1015.874
2017-06-20T16:15:05.318Z,1015.859
2017-06-20T16:18:01.133Z,1015.821
2017-06-20T16:20:56.841Z,1015.826
2017-06-20T16:23:52.547Z,1015.821
2017-06-20T16:26:48.231Z,1015.832
2017-06-20T16:29:43.881Z,1015.830
2017-06-20T16:35:35.371Z,1015.913
2017-06-20T16:38:31.167Z,1015.959
2017-06-20T16:44:22.233Z,1015.962
2017-06-20T16:50:13.510Z,1016.084
2017-06-20T16:53:09.104Z,1016.130
2017-06-20T16:56:04.704Z,1016.116
2017-06-20T16:59:00.309Z,1016.101
2017-06-20T17:01:55.821Z,1016.113
2017-06-20T17:04:51.426Z,1016.152
2017-06-20T17:07:47.057Z,1016.166
2017-06-20T17:10:42.685Z,1016.134
2017-06-20T17:13:38.497Z,1016.129
2017-06-20T17:16:34.060Z,1016.079
2017-06-20T17:19:29.638Z,1016.093
2017-06-20T17:22:25.089Z,1016.121
2017-06-20T17:28:16.155Z,1016.261
2017-06-20T17:31:11.634Z,1016.303
2017-06-20T17:34:07.197Z,1016.271
2017-06-20T17:37:02.815Z,1016.280
2017-06-20T17:39:58.312Z,1016.310
2017-06-20T17:42:53.858Z,1016.333
2017-06-20T17:45:49.444Z,1016.373
2017-06-20T17:48:44.939Z,1016.405
2017-06-20T17:51:40.403Z,1016.427
2017-06-20T17:54:35.996Z,1016.418
2017-06-20T17:57:31.554Z,1016.437
2017-06-20T18:00:26.984Z,1016.427
2017-06-20T18:03:22.547Z,1016.431
2017-06-20T18:06:17.941Z,1016.452
2017-06-20T18:09:13.423Z,1016.459
2017-06-20T18:12:08.865Z,1016.457
2017-06-20T18:15:04.610Z,1016.478
2017-06-20T18:18:00.077Z,1016.544
2017-06-20T18:20:55.498Z,1016.562
2017-06-20T18:23:50.914Z,1016.557
2017-06-20T18:26:46.231Z,1016.587
2017-06-20T18:29:41.789Z,1016.594
2017-06-20T18:32:37.354Z,1016.611
2017-06-20T18:35:32.740Z,1016.588
2017-06-20T18:38:28.190Z,1016.600
2017-06-20T18:41:23.640Z,1016.639
2017-06-20T18:44:18.970Z,1016.685
2017-06-20T18:50:09.886Z,1016.816
2017-06-20T18:53:05.278Z,1016.832
2017-06-20T18:56:00.713Z,1016.832
2017-06-20T18:58:56.152Z,1016.837
2017-06-20T19:01:51.411Z,1016.864
2017-06-20T19:04:46.973Z,1016.875
2017-06-20T19:07:42.408Z,1016.981
2017-06-20T19:10:37.756Z,1016.969
2017-06-20T19:13:32.997Z,1017.020
2017-06-20T19:16:28.451Z,1017.061
2017-06-20T19:19:23.793Z,1017.110
2017-06-20T19:22:19.250Z,1017.111
2017-06-20T19:25:14.495Z,1017.107
2017-06-20T19:28:09.899Z,1017.135
2017-06-20T19:31:05.269Z,1017.172
2017-06-20T19:34:00.626Z,1017.247
2017-06-20T19:36:55.947Z,1017.266
2017-06-20T19:39:51.135Z,1017.279
2017-06-20T19:42:46.434Z,1017.274
2017-06-20T19:48:37.130Z,1017.336
2017-06-20T19:51:32.423Z,1017.356
2017-06-20T19:54:27.480Z,1017.420
2017-06-20T19:57:22.695Z,1017.443
2017-06-20T20:00:17.692Z,1017.474
2017-06-20T20:03:12.799Z,1017.454
2017-06-20T20:06:07.761Z,1017.480
2017-06-20T20:09:02.727Z,1017.535
2017-06-20T20:11:57.720Z,1017.534
2017-06-20T20:14:52.637Z,1017.557
2017-06-20T20:17:47.439Z,1017.556
2017-06-20T20:20:42.329Z,1017.564
2017-06-20T20:23:37.469Z,1017.576
2017-06-20T20:26:32.437Z,1017.601
2017-06-20T20:29:27.512Z,1017.594
2017-06-20T20:32:22.398Z,1017.606
2017-06-20T20:38:12.260Z,1017.628
2017-06-20T20:41:07.137Z,1017.638
2017-06-20T20:44:01.979Z,1017.614
2017-06-20T20:46:56.799Z,1017.617
2017-06-20T20:52:46.603Z,1017.607
2017-06-20T20:55:41.458Z,1017.611
2017-06-20T20:58:36.274Z,1017.585
2017-06-20T21:04:26.149Z,1017.575
2017-06-20T21:07:21.001Z,1017.553
2017-06-20T21:10:15.807Z,1017.550
2017-06-20T21:13:10.650Z,1017.586
2017-06-20T21:16:05.293Z,1017.621
2017-06-20T21:19:00.151Z,1017.655
2017-06-20T21:21:55.113Z,1017.676
2017-06-20T21:27:45.331Z,1017.691
2017-06-20T21:30:40.255Z,1017.699
2017-06-20T21:33:35.197Z,1017.719
2017-06-20T21:36:30.499Z,1017.770
2017-06-20T21:39:25.606Z,1017.777
2017-06-20T21:42:20.589Z,1017.790
2017-06-20T21:45:15.698Z,1017.814
2017-06-20T21:48:10.598Z,1017.810
2017-06-20T21:51:05.663Z,1017.824
2017-06-20T21:54:00.693Z,1017.834
2017-06-20T21:56:55.936Z,1017.858
2017-06-20T22:02:46.341Z,1017.866
2017-06-20T22:05:41.421Z,1017.889
2017-06-20T22:08:36.548Z,1017.896
2017-06-20T22:11:31.611Z,1017.914
2017-06-20T22:14:26.686Z,1017.889
2017-06-20T22:20:16.639Z,1017.922
2017-06-20T22:23:11.588Z,1017.971
2017-06-20T22:26:06.429Z,1018.036
2017-06-20T22:29:01.288Z,1018.070
2017-06-20T22:31:56.255Z,1018.097
2017-06-20T22:37:46.010Z,1018.122
2017-06-20T22:40:40.925Z,1018.139
2017-06-20T22:49:25.970Z,1018.184
2017-06-20T22:52:20.905Z,1018.210
2017-06-20T22:58:10.848Z,1018.222
2017-06-20T23:01:05.790Z,1018.235
2017-06-20T23:04:00.802Z,1018.260
2017-06-20T23:06:55.703Z,1018.288
2017-06-20T23:09:50.471Z,1018.379
2017-06-20T23:12:45.411Z,1018.367
2017-06-20T23:15:40.250Z,1018.375
2017-06-20T23:21:30.018Z,1018.457
2017-06-20T23:24:24.953Z,1018.465
2017-06-20T23:27:19.933Z,1018.452
2017-06-20T23:30:14.888Z,1018.485
2017-06-20T23:33:09.800Z,1018.477
2017-06-20T23:36:04.592Z,1018.451
2017-06-20T23:38:59.412Z,1018.459
2017-06-20T23:44:49.067Z,1018.514
2017-06-20T23:47:44.098Z,1018.514
2017-06-20T23:50:38.832Z,1018.520
2017-06-20T23:53:33.533Z,1018.532
2017-06-20T23:56:28.383Z,1018.608
